Time;durP1;ratioP1;P1;durP2;ratioP2;P2;SDS_P1;SDS_P2;PMS_P1;PMS_P2;Temp;Humidity;BMP_temperature;BMP_pressure;BME280_temperature;BME280_humidity;BME280_pressure;Samples;Min_cycle;Max_cycle;Signal;HPM_P1;HPM_P2
2021/09/25 00:01:40;;;;;;;12.35;5.30;;;;;;;16.48;61.56;99687.59;5098194;28;20158;-67
2021/09/25 00:04:07;;;;;;;9.25;5.30;;;;;;;16.50;61.48;99689.09;5096894;28;20513;-68
2021/09/25 00:06:34;;;;;;;12.80;5.13;;;;;;;16.56;61.47;99685.75;5097826;28;20126;-67
2021/09/25 00:09:03;;;;;;;8.23;4.07;;;;;;;16.61;61.29;99683.44;5098211;28;20041;-67
2021/09/25 00:11:30;;;;;;;10.55;4.20;;;;;;;16.67;61.11;99691.78;5102944;28;20027;-68
2021/09/25 00:13:58;;;;;;;17.65;5.95;;;;;;;16.68;61.23;99688.94;5113054;28;20051;-69
2021/09/25 00:16:26;;;;;;;13.45;4.60;;;;;;;16.69;61.30;99681.78;5109527;28;20036;-67
2021/09/25 00:18:53;;;;;;;9.85;4.45;;;;;;;16.73;61.15;99683.13;5114186;28;20047;-67
2021/09/25 00:21:21;;;;;;;12.88;4.57;;;;;;;16.77;61.18;99682.63;5111147;28;20058;-73
2021/09/25 00:23:48;;;;;;;12.02;4.30;;;;;;;16.81;60.97;99680.47;5110542;28;20044;-66
2021/09/25 00:26:16;;;;;;;11.73;4.47;;;;;;;16.82;61.10;99682.16;5109699;28;20611;-66
2021/09/25 00:28:44;;;;;;;8.02;3.78;;;;;;;16.84;60.99;99688.19;5113439;28;20071;-70
2021/09/25 00:31:11;;;;;;;12.50;4.20;;;;;;;16.88;60.94;99688.69;5111298;28;20488;-68
2021/09/25 00:33:38;;;;;;;8.23;3.70;;;;;;;16.88;60.97;99686.00;5104489;27;20376;-72
2021/09/25 00:36:06;;;;;;;11.32;4.53;;;;;;;16.91;60.83;99683.84;5132787;27;20055;-69
2021/09/25 00:38:33;;;;;;;10.63;4.78;;;;;;;16.93;60.88;99691.69;5127900;27;20057;-67
2021/09/25 00:41:00;;;;;;;11.25;4.93;;;;;;;16.91;61.00;99688.34;5125748;27;20043;-72
2021/09/25 00:43:30;;;;;;;13.23;7.53;;;;;;;16.91;61.07;99689.19;5104105;27;20492;-71
2021/09/25 00:45:56;;;;;;;9.18;5.18;;;;;;;16.93;60.94;99681.84;5130996;27;20054;-67
2021/09/25 00:48:24;;;;;;;10.73;5.65;;;;;;;16.95;60.85;99684.34;5090670;27;20064;-72
2021/09/25 00:50:51;;;;;;;9.20;5.00;;;;;;;16.98;60.96;99684.03;5124079;27;20053;-66
2021/09/25 00:53:18;;;;;;;11.40;5.50;;;;;;;16.99;60.99;99685.66;5126466;27;20044;-73
2021/09/25 00:55:45;;;;;;;8.32;4.57;;;;;;;17.02;60.80;99684.53;5118194;27;20054;-71
2021/09/25 00:58:12;;;;;;;11.60;4.97;;;;;;;17.04;60.87;99680.66;5124923;27;20039;-67
2021/09/25 01:00:42;;;;;;;12.50;5.60;;;;;;;17.09;60.91;99674.84;5117178;27;20052;-78
2021/09/25 01:03:09;;;;;;;8.70;4.13;;;;;;;17.09;60.79;99678.34;5116988;27;20062;-69
2021/09/25 01:05:36;;;;;;;7.85;4.28;;;;;;;17.12;60.82;99677.97;5099646;27;20043;-70
2021/09/25 01:08:04;;;;;;;9.80;4.18;;;;;;;17.12;60.80;99664.63;5119778;27;20138;-69
2021/09/25 01:10:31;;;;;;;9.63;4.25;;;;;;;17.16;60.57;99670.47;5114886;27;20091;-66
2021/09/25 01:12:58;;;;;;;11.15;4.63;;;;;;;17.15;60.76;99663.50;5117597;27;20047;-64
2021/09/25 01:15:25;;;;;;;7.93;4.70;;;;;;;17.12;60.81;99671.81;5112704;27;20035;-68
2021/09/25 01:17:54;;;;;;;8.15;4.20;;;;;;;17.15;60.90;99674.16;5115608;27;20483;-69
2021/09/25 01:20:21;;;;;;;11.55;4.80;;;;;;;17.15;60.88;99663.50;5116773;27;20047;-68
2021/09/25 01:22:50;;;;;;;9.88;4.78;;;;;;;17.17;60.70;99667.66;5115702;27;20062;-66
2021/09/25 01:25:17;;;;;;;13.88;5.00;;;;;;;17.16;60.91;99666.00;5115041;27;20048;-66
2021/09/25 01:27:44;;;;;;;11.20;4.40;;;;;;;17.18;60.87;99673.84;5125009;27;20045;-68
2021/09/25 01:30:15;;;;;;;12.70;4.93;;;;;;;17.22;60.74;99674.34;5125340;27;20046;-67
2021/09/25 01:32:42;;;;;;;11.60;4.78;;;;;;;17.22;60.82;99669.81;5128134;27;20035;-69
2021/09/25 01:35:11;;;;;;;13.65;5.18;;;;;;;17.20;60.83;99674.50;5125357;27;20045;-71
2021/09/25 01:37:38;;;;;;;11.63;4.80;;;;;;;17.18;60.89;99677.31;5099230;27;20055;-72
2021/09/25 01:40:10;;;;;;;7.70;4.63;;;;;;;17.19;60.92;99681.66;5112752;27;20501;-68
2021/09/25 01:42:37;;;;;;;10.77;5.22;;;;;;;17.18;60.77;99674.66;5115477;27;20051;-68
2021/09/25 01:45:05;;;;;;;8.85;4.82;;;;;;;17.18;60.83;99663.16;5113563;27;20043;-66
2021/09/25 01:47:32;;;;;;;10.18;4.93;;;;;;;17.18;60.86;99669.31;5118446;27;20039;-67
2021/09/25 01:50:01;;;;;;;11.15;5.47;;;;;;;17.18;60.97;99668.50;5118667;27;20046;-77
2021/09/25 01:52:28;;;;;;;7.43;4.80;;;;;;;17.19;60.96;99670.16;5112999;27;20092;-68
2021/09/25 01:54:55;;;;;;;8.65;4.90;;;;;;;17.22;60.83;99669.00;5117738;27;20646;-76
2021/09/25 01:57:23;;;;;;;10.07;5.15;;;;;;;17.25;60.88;99665.97;5081201;28;20039;-73
2021/09/25 01:59:51;;;;;;;8.02;4.43;;;;;;;17.26;60.75;99668.47;5116586;27;20324;-74
2021/09/25 02:02:18;;;;;;;8.68;4.32;;;;;;;17.27;60.81;99672.81;5117418;27;20043;-68
2021/09/25 02:04:47;;;;;;;10.73;4.60;;;;;;;17.30;60.67;99660.97;5115757;27;20099;-69
2021/09/25 02:07:16;;;;;;;10.40;5.13;;;;;;;17.27;61.05;99654.13;5119014;27;20052;-69
2021/09/25 02:09:43;;;;;;;11.73;4.28;;;;;;;17.32;60.84;99662.47;5121774;27;20482;-77
2021/09/25 02:12:10;;;;;;;9.63;5.78;;;;;;;17.33;60.89;99656.13;5117658;27;20043;-76
2021/09/25 02:14:39;;;;;;;7.97;5.18;;;;;;;17.37;60.88;99656.63;5118126;28;20081;-78
2021/09/25 02:17:07;;;;;;;9.10;5.45;;;;;;;17.38;60.77;99648.44;5121417;28;20043;-71
2021/09/25 02:19:33;;;;;;;8.75;5.55;;;;;;;17.42;60.65;99653.44;5126013;28;20045;-76
2021/09/25 02:22:01;;;;;;;9.10;5.05;;;;;;;17.44;60.66;99656.78;5125214;28;20051;-66
2021/09/25 02:24:28;;;;;;;16.92;5.32;;;;;;;17.44;60.62;99646.91;5116064;28;20108;-69
2021/09/25 02:26:56;;;;;;;9.23;6.10;;;;;;;17.44;60.63;99664.78;5111570;28;20039;-69
2021/09/25 02:29:23;;;;;;;7.32;4.43;;;;;;;17.47;60.53;99656.44;5123358;28;20071;-72
2021/09/25 02:31:53;;;;;;;13.55;6.57;;;;;;;17.50;60.65;99661.41;5115169;28;20502;-75
2021/09/25 02:34:20;;;;;;;8.57;4.97;;;;;;;17.48;60.76;99660.75;5114098;28;20051;-75
2021/09/25 02:36:47;;;;;;;10.45;6.00;;;;;;;17.49;60.59;99657.09;5114532;28;20402;-67
2021/09/25 02:39:14;;;;;;;10.07;5.03;;;;;;;17.51;60.56;99657.75;5115269;28;20490;-68
2021/09/25 02:41:41;;;;;;;10.05;5.32;;;;;;;17.53;60.53;99666.44;5112957;28;20043;-74
2021/09/25 02:44:08;;;;;;;14.05;5.70;;;;;;;17.54;60.49;99668.09;5115465;28;20051;-73
2021/09/25 02:46:35;;;;;;;8.95;5.65;;;;;;;17.55;60.32;99670.56;5115341;28;20055;-75
2021/09/25 02:49:03;;;;;;;13.15;6.03;;;;;;;17.58;60.24;99669.41;5114969;28;20063;-74
2021/09/25 02:51:30;;;;;;;10.43;5.60;;;;;;;17.59;60.25;99671.06;5120999;28;20036;-75
2021/09/25 02:53:58;;;;;;;10.50;5.90;;;;;;;17.56;60.31;99671.44;5115473;28;20043;-72
2021/09/25 02:56:25;;;;;;;10.57;5.90;;;;;;;17.55;60.54;99667.91;5116925;28;20051;-77
2021/09/25 02:58:52;;;;;;;12.75;6.75;;;;;;;17.54;60.50;99673.44;5115473;28;20039;-73
2021/09/25 03:01:19;;;;;;;8.80;5.45;;;;;;;17.55;60.42;99672.41;5113294;28;20047;-73
2021/09/25 03:03:46;;;;;;;10.40;5.93;;;;;;;17.54;60.33;99676.94;5119032;28;20050;-73
2021/09/25 03:06:15;;;;;;;9.10;7.18;;;;;;;17.54;60.51;99678.78;5118750;27;20114;-78
2021/09/25 03:08:42;;;;;;;7.80;5.90;;;;;;;17.51;60.40;99668.44;5120993;27;20059;-80
2021/09/25 03:11:09;;;;;;;10.93;7.13;;;;;;;17.50;60.63;99677.44;5097977;27;20035;-70
2021/09/25 03:13:36;;;;;;;9.85;6.07;;;;;;;17.51;60.48;99679.94;5119067;27;20043;-72
2021/09/25 03:16:03;;;;;;;10.40;6.95;;;;;;;17.52;60.37;99680.75;5122556;27;20040;-75
2021/09/25 03:18:29;;;;;;;10.07;5.75;;;;;;;17.52;60.60;99673.63;5118617;27;20035;-76
2021/09/25 03:20:56;;;;;;;11.50;5.85;;;;;;;17.51;60.80;99677.28;5121193;27;20441;-78
2021/09/25 03:23:25;;;;;;;11.45;5.85;;;;;;;17.52;60.51;99678.94;5111391;27;20050;-69
2021/09/25 03:25:52;;;;;;;9.65;5.97;;;;;;;17.54;60.47;99671.59;5105446;28;20048;-73
2021/09/25 03:28:18;;;;;;;11.07;6.35;;;;;;;17.53;60.35;99669.09;5106236;28;20048;-67
2021/09/25 03:30:47;;;;;;;10.48;5.95;;;;;;;17.51;60.69;99668.44;5109529;28;20047;-68
2021/09/25 03:33:14;;;;;;;10.38;6.43;;;;;;;17.51;60.61;99671.94;5110361;28;20052;-67
2021/09/25 03:35:46;;;;;;;12.38;6.05;;;;;;;17.51;60.57;99665.75;5109390;28;20503;-67
2021/09/25 03:38:13;;;;;;;11.10;5.68;;;;;;;17.50;60.57;99669.44;5109126;28;20512;-67
2021/09/25 03:40:41;;;;;;;10.40;6.55;;;;;;;17.50;60.70;99656.94;5109586;28;20054;-67
2021/09/25 03:43:08;;;;;;;13.02;6.38;;;;;;;17.50;60.59;99666.75;5109364;28;20075;-68
2021/09/25 03:45:35;;;;;;;9.55;6.47;;;;;;;17.51;60.75;99663.09;5110221;28;20143;-67
2021/09/25 03:48:05;;;;;;;11.52;7.10;;;;;;;17.54;60.62;99662.75;5110398;28;20494;-73
2021/09/25 03:50:32;;;;;;;9.93;5.88;;;;;;;17.57;60.66;99663.25;5107715;28;20048;-68
2021/09/25 03:52:59;;;;;;;10.18;6.15;;;;;;;17.57;60.66;99663.25;5109356;28;20047;-69
2021/09/25 03:55:26;;;;;;;9.90;6.60;;;;;;;17.58;60.62;99662.22;5107461;28;20407;-68
2021/09/25 03:57:56;;;;;;;13.20;6.82;;;;;;;17.58;60.62;99656.06;5103213;28;20066;-69
2021/09/25 04:00:23;;;;;;;10.52;5.57;;;;;;;17.60;60.60;99654.06;5111427;28;20057;-67
2021/09/25 04:02:51;;;;;;;10.73;7.20;;;;;;;17.57;60.80;99665.06;5109994;28;20044;-68
2021/09/25 04:05:18;;;;;;;10.20;5.78;;;;;;;17.57;60.74;99662.41;5108144;28;20108;-70
2021/09/25 04:07:45;;;;;;;11.52;7.18;;;;;;;17.57;60.85;99646.38;5108721;28;20452;-69
2021/09/25 04:10:13;;;;;;;10.05;6.93;;;;;;;17.55;60.90;99651.88;5107700;28;20100;-67
2021/09/25 04:12:40;;;;;;;11.43;7.18;;;;;;;17.56;60.74;99664.25;5108560;28;20051;-69
2021/09/25 04:15:11;;;;;;;12.38;6.32;;;;;;;17.56;60.92;99645.56;5109198;28;20048;-68
2021/09/25 04:17:38;;;;;;;14.48;6.55;;;;;;;17.57;60.88;99649.91;5108391;28;20044;-70
2021/09/25 04:20:06;;;;;;;13.32;6.60;;;;;;;17.56;60.80;99644.72;5108249;28;20398;-69
2021/09/25 04:22:33;;;;;;;11.70;6.82;;;;;;;17.54;61.04;99644.06;5108749;28;20048;-70
2021/09/25 04:25:00;;;;;;;11.73;7.35;;;;;;;17.52;60.96;99643.38;5109102;28;20556;-69
2021/09/25 04:27:29;;;;;;;11.30;6.80;;;;;;;17.53;60.98;99640.56;5099791;28;20058;-68
2021/09/25 04:29:57;;;;;;;9.32;7.18;;;;;;;17.52;61.10;99649.59;5110443;28;20388;-68
2021/09/25 04:32:25;;;;;;;11.07;7.35;;;;;;;17.51;61.05;99650.56;5108755;28;20051;-67
2021/09/25 04:34:52;;;;;;;11.65;6.38;;;;;;;17.50;61.25;99650.75;5107167;28;20059;-72
2021/09/25 04:37:19;;;;;;;14.57;7.07;;;;;;;17.50;61.16;99656.06;5108202;28;20047;-68
2021/09/25 04:39:47;;;;;;;10.38;6.80;;;;;;;17.52;61.04;99660.25;5106191;28;20054;-68
2021/09/25 04:42:14;;;;;;;14.55;7.30;;;;;;;17.53;61.20;99664.59;5107394;28;20051;-68
2021/09/25 04:44:42;;;;;;;12.02;7.35;;;;;;;17.54;61.23;99689.47;5108895;28;20051;-69
2021/09/25 04:47:09;;;;;;;11.20;7.38;;;;;;;17.57;61.08;99683.75;5110938;28;20620;-68
2021/09/25 04:49:37;;;;;;;11.95;7.85;;;;;;;17.59;61.15;99681.75;5107681;28;20055;-68
2021/09/25 04:52:05;;;;;;;11.82;8.30;;;;;;;17.60;61.38;99682.59;5109647;28;20043;-76
2021/09/25 04:54:32;;;;;;;13.35;8.35;;;;;;;17.62;61.39;99686.75;5111711;28;20122;-72
2021/09/25 04:56:59;;;;;;;10.90;7.10;;;;;;;17.64;61.11;99702.63;5109546;28;20044;-80
2021/09/25 04:59:26;;;;;;;12.07;7.28;;;;;;;17.67;61.11;99708.44;5110361;28;20047;-73
2021/09/25 05:01:52;;;;;;;11.43;8.05;;;;;;;17.70;61.12;99715.28;5108877;28;20043;-69
2021/09/25 05:04:19;;;;;;;14.88;7.97;;;;;;;17.69;61.08;99705.63;5106308;28;20054;-70
2021/09/25 05:06:49;;;;;;;12.23;8.50;;;;;;;17.71;61.24;99707.09;5109282;28;20047;-72
2021/09/25 05:09:18;;;;;;;13.18;8.15;;;;;;;17.74;61.21;99709.44;5110003;28;20059;-71
2021/09/25 05:11:45;;;;;;;14.95;9.07;;;;;;;17.77;61.09;99706.44;5100072;28;20139;-78
2021/09/25 05:14:12;;;;;;;11.25;7.43;;;;;;;17.78;61.02;99707.25;5109639;28;20135;-77
2021/09/25 05:16:39;;;;;;;14.60;9.95;;;;;;;17.82;61.24;99705.91;5112044;27;20062;-74
2021/09/25 05:19:06;;;;;;;16.92;8.35;;;;;;;17.84;60.90;99706.56;5130170;27;20043;-74
2021/09/25 05:21:33;;;;;;;12.25;8.82;;;;;;;17.87;60.89;99716.13;5130332;27;20069;-79
2021/09/25 05:24:03;;;;;;;18.00;9.85;;;;;;;17.90;61.05;99705.91;5131075;27;20039;-71
2021/09/25 05:26:30;;;;;;;11.70;7.28;;;;;;;17.94;60.87;99709.91;5111855;27;20055;-72
2021/09/25 05:28:57;;;;;;;12.52;8.77;;;;;;;17.95;60.95;99700.03;5127600;27;20061;-79
2021/09/25 05:31:24;;;;;;;15.82;7.85;;;;;;;17.98;60.83;99710.38;5117050;27;20043;-73
2021/09/25 05:33:51;;;;;;;14.75;10.48;;;;;;;18.02;61.06;99714.38;5109882;28;20051;-77
2021/09/25 05:36:18;;;;;;;16.10;9.68;;;;;;;18.05;61.04;99719.38;5108906;28;20058;-69
2021/09/25 05:38:45;;;;;;;18.98;10.95;;;;;;;18.05;60.91;99714.03;5108265;28;20040;-79
2021/09/25 05:41:13;;;;;;;14.15;10.13;;;;;;;18.10;60.80;99714.34;5107760;28;20048;-69
2021/09/25 05:43:40;;;;;;;17.30;9.48;;;;;;;18.15;60.83;99724.53;5107727;28;20514;-75
2021/09/25 05:46:07;;;;;;;17.38;9.13;;;;;;;18.18;60.77;99716.16;5092020;28;20054;-73
2021/09/25 05:48:34;;;;;;;14.98;9.93;;;;;;;18.28;60.70;99724.81;5113106;28;20509;-71
2021/09/25 05:51:01;;;;;;;13.93;9.50;;;;;;;18.33;60.81;99722.44;5108115;28;20039;-72
2021/09/25 05:53:29;;;;;;;16.77;10.13;;;;;;;18.42;60.49;99725.91;5108867;28;20099;-76
2021/09/25 05:55:56;;;;;;;15.88;10.02;;;;;;;18.48;60.46;99725.19;5108599;28;20136;-78
2021/09/25 05:58:24;;;;;;;13.95;9.85;;;;;;;18.53;60.50;99733.53;5107195;28;20047;-78
2021/09/25 06:00:51;;;;;;;17.30;9.57;;;;;;;18.57;60.13;99738.53;5106148;28;20044;-70
2021/09/25 06:03:18;;;;;;;18.10;11.40;;;;;;;18.60;60.18;99732.81;5105208;28;20035;-71
2021/09/25 06:05:45;;;;;;;18.85;11.57;;;;;;;18.62;60.14;99728.13;5104544;28;20128;-72
2021/09/25 06:08:12;;;;;;;17.77;10.82;;;;;;;18.56;60.42;99732.34;5105031;28;20484;-68
2021/09/25 06:10:39;;;;;;;16.55;10.57;;;;;;;18.60;60.45;99732.81;5106277;28;20504;-70
2021/09/25 06:13:07;;;;;;;14.93;10.27;;;;;;;18.71;60.07;99729.75;5107525;28;20131;-70
2021/09/25 06:15:36;;;;;;;15.75;11.23;;;;;;;18.76;59.99;99727.38;5109721;28;20156;-69
2021/09/25 06:18:03;;;;;;;18.80;11.82;;;;;;;18.83;59.84;99723.00;5106368;28;20100;-71
2021/09/25 06:20:30;;;;;;;19.00;11.07;;;;;;;18.89;59.81;99726.84;5105106;28;20127;-68
2021/09/25 06:22:57;;;;;;;13.38;9.00;;;;;;;18.99;59.58;99731.94;5105478;28;20056;-70
2021/09/25 06:25:24;;;;;;;16.20;10.48;;;;;;;19.04;59.65;99735.72;5105262;28;20110;-73
2021/09/25 06:27:51;;;;;;;16.48;11.55;;;;;;;19.10;59.62;99739.53;5103774;28;20043;-72
2021/09/25 06:30:19;;;;;;;16.05;11.63;;;;;;;19.11;59.53;99743.88;5102001;28;20506;-68
2021/09/25 06:32:48;;;;;;;15.55;10.68;;;;;;;19.20;59.33;99734.78;5055693;28;20411;-74
2021/09/25 06:35:16;;;;;;;14.68;9.98;;;;;;;19.29;59.10;99735.53;5104937;28;20043;-68
2021/09/25 06:37:44;;;;;;;15.75;11.90;;;;;;;19.35;58.98;99742.84;5112544;28;20230;-76
2021/09/25 06:40:12;;;;;;;16.85;10.90;;;;;;;19.44;58.49;99735.56;5106944;28;20039;-77
2021/09/25 06:42:40;;;;;;;13.57;9.93;;;;;;;19.59;58.54;99739.13;5105224;28;20118;-75
2021/09/25 06:45:08;;;;;;;18.75;9.43;;;;;;;19.70;58.28;99740.53;5114390;28;20616;-76
2021/09/25 06:47:35;;;;;;;15.55;11.65;;;;;;;19.80;57.88;99737.59;5117711;28;20023;-75
2021/09/25 06:50:05;;;;;;;24.00;12.77;;;;;;;19.92;57.61;99744.16;5113930;28;20040;-76
2021/09/25 06:52:32;;;;;;;17.33;10.52;;;;;;;20.01;57.60;99742.22;5102845;28;20078;-75
2021/09/25 06:54:59;;;;;;;16.83;9.63;;;;;;;20.12;57.13;99735.56;5104776;28;20048;-76
2021/09/25 06:57:29;;;;;;;17.52;11.13;;;;;;;20.21;56.94;99742.50;5101722;28;20035;-77
2021/09/25 06:59:56;;;;;;;15.68;10.07;;;;;;;20.32;56.81;99739.31;5103249;28;20052;-79
2021/09/25 07:02:24;;;;;;;17.15;12.18;;;;;;;20.49;56.39;99741.78;5109397;28;20047;-76
2021/09/25 07:04:51;;;;;;;20.00;13.27;;;;;;;20.52;56.14;99752.16;5104314;28;20040;-76
2021/09/25 07:07:19;;;;;;;14.73;10.30;;;;;;;20.48;56.51;99743.66;5095444;28;20063;-75
2021/09/25 07:09:46;;;;;;;13.95;10.60;;;;;;;20.56;56.54;99740.00;5098597;28;20047;-77
2021/09/25 07:12:13;;;;;;;16.65;11.18;;;;;;;20.55;56.47;99743.75;5093614;28;20126;-76
2021/09/25 07:14:41;;;;;;;16.10;12.52;;;;;;;20.62;56.23;99739.31;5099082;28;20586;-76
2021/09/25 07:17:09;;;;;;;14.02;10.75;;;;;;;20.62;56.08;99750.03;5100288;28;20044;-78
2021/09/25 07:19:35;;;;;;;15.98;11.52;;;;;;;20.78;55.73;99746.31;5098958;28;20051;-74
2021/09/25 07:22:02;;;;;;;15.43;11.15;;;;;;;20.73;55.61;99752.22;5099434;28;20044;-73
2021/09/25 07:24:31;;;;;;;14.82;11.93;;;;;;;20.70;55.69;99757.13;5098196;28;20415;-73
2021/09/25 07:26:58;;;;;;;13.10;10.43;;;;;;;20.80;55.42;99758.50;5102305;28;20494;-72
2021/09/25 07:29:24;;;;;;;16.00;10.60;;;;;;;21.07;55.19;99761.47;5101771;28;20043;-75
2021/09/25 07:31:51;;;;;;;17.00;9.68;;;;;;;21.29;54.52;99761.44;5097031;28;20054;-72
2021/09/25 07:34:18;;;;;;;20.10;12.90;;;;;;;21.25;54.50;99763.69;5095366;28;20055;-74
2021/09/25 07:36:45;;;;;;;14.27;11.52;;;;;;;21.09;54.69;99767.47;5097996;28;20569;-76
2021/09/25 07:39:13;;;;;;;15.63;9.98;;;;;;;21.22;54.57;99764.06;5100003;28;20036;-73
2021/09/25 07:41:41;;;;;;;12.95;9.50;;;;;;;21.46;54.29;99770.91;5092498;28;20066;-75
2021/09/25 07:44:08;;;;;;;15.73;13.30;;;;;;;21.37;53.73;99780.97;5106811;28;20059;-72
2021/09/25 07:46:36;;;;;;;15.50;9.55;;;;;;;21.25;54.35;99773.59;5109206;28;20056;-74
2021/09/25 07:49:05;;;;;;;15.95;12.18;;;;;;;21.22;54.50;99768.63;5106251;28;20044;-73
2021/09/25 07:51:32;;;;;;;13.25;8.85;;;;;;;21.18;54.79;99777.06;5104549;28;20483;-73
2021/09/25 07:53:59;;;;;;;13.50;9.52;;;;;;;21.28;54.79;99782.09;5106538;28;20047;-74
2021/09/25 07:56:27;;;;;;;14.35;12.13;;;;;;;21.14;54.73;99781.16;5108339;28;20052;-75
2021/09/25 07:58:56;;;;;;;13.52;9.90;;;;;;;20.88;55.19;99778.19;5108287;28;20418;-73
2021/09/25 08:01:23;;;;;;;15.10;10.55;;;;;;;20.85;55.33;99781.25;5111080;28;20648;-76
2021/09/25 08:03:50;;;;;;;14.38;10.15;;;;;;;20.81;55.52;99786.16;5111459;28;20058;-74
2021/09/25 08:06:18;;;;;;;14.80;11.02;;;;;;;20.81;55.61;99791.53;5107395;28;20510;-74
2021/09/25 08:08:45;;;;;;;14.85;12.27;;;;;;;20.64;56.21;99785.56;5110759;28;20122;-75
2021/09/25 08:11:14;;;;;;;17.33;11.73;;;;;;;20.57;56.30;99785.44;5110352;28;20047;-78
2021/09/25 08:13:41;;;;;;;17.60;13.38;;;;;;;20.57;56.32;99792.66;5113541;28;20043;-79
2021/09/25 08:16:12;;;;;;;17.00;11.63;;;;;;;20.57;56.49;99801.53;5115819;28;20058;-74
2021/09/25 08:18:41;;;;;;;13.75;10.25;;;;;;;20.65;56.30;99803.31;5116313;28;20043;-72
2021/09/25 08:21:07;;;;;;;16.45;11.65;;;;;;;20.59;56.25;99798.69;5112221;28;20039;-76
2021/09/25 08:23:34;;;;;;;15.05;12.75;;;;;;;20.59;56.38;99799.50;5106388;28;20040;-77
2021/09/25 08:26:02;;;;;;;14.05;10.55;;;;;;;20.72;56.38;99800.72;5101558;28;20063;-73
2021/09/25 08:28:29;;;;;;;18.13;9.60;;;;;;;20.81;55.99;99805.81;5092864;28;20649;-75
2021/09/25 08:30:55;;;;;;;17.05;11.55;;;;;;;20.84;55.98;99803.75;5091653;28;20047;-74
2021/09/25 08:33:25;;;;;;;14.32;10.85;;;;;;;20.79;56.10;99807.81;5088878;28;20579;-75
2021/09/25 08:35:52;;;;;;;11.82;9.57;;;;;;;20.78;55.97;99808.03;5094434;28;20066;-75
2021/09/25 08:38:19;;;;;;;13.52;10.25;;;;;;;20.85;56.17;99811.63;5106700;28;20035;-75
2021/09/25 08:40:48;;;;;;;12.65;10.20;;;;;;;20.77;56.23;99807.19;5103882;28;20681;-75
2021/09/25 08:43:15;;;;;;;15.98;10.90;;;;;;;20.78;56.40;99803.47;5102245;28;20050;-76
2021/09/25 08:45:42;;;;;;;18.20;12.18;;;;;;;20.79;56.13;99798.94;5103529;28;20040;-76
2021/09/25 08:48:09;;;;;;;14.48;11.15;;;;;;;20.72;56.51;99800.72;5104843;28;20040;-78
2021/09/25 08:50:40;;;;;;;16.55;12.40;;;;;;;20.63;56.53;99810.72;5104984;28;20126;-75
2021/09/25 08:53:07;;;;;;;15.00;11.90;;;;;;;20.59;56.63;99809.41;5103493;28;20388;-75
2021/09/25 08:55:35;;;;;;;15.90;11.55;;;;;;;20.59;56.87;99815.59;5068617;28;20044;-76
2021/09/25 08:58:02;;;;;;;16.23;11.57;;;;;;;20.71;56.46;99817.84;5110584;28;20035;-81
2021/09/25 09:00:39;;;;;;;13.57;12.00;;;;;;;20.69;56.96;99822.56;5109221;28;20082;-77
2021/09/25 09:03:27;;;;;;;16.25;12.48;;;;;;;20.73;56.75;99821.19;5103751;28;20040;-73
2021/09/25 09:06:07;;;;;;;17.08;12.75;;;;;;;20.67;57.04;99819.22;5101697;28;20051;-78
2021/09/25 09:08:41;;;;;;;15.05;12.07;;;;;;;20.64;56.91;99828.50;5087319;28;20051;-73
2021/09/25 09:11:09;;;;;;;15.57;12.07;;;;;;;20.63;56.83;99824.13;5100564;28;20043;-74
2021/09/25 09:13:39;;;;;;;17.17;13.95;;;;;;;20.56;57.13;99825.88;5101552;28;20063;-72
2021/09/25 09:16:08;;;;;;;15.80;11.40;;;;;;;20.53;57.54;99827.09;5103809;28;20082;-77
2021/09/25 09:18:38;;;;;;;19.90;12.23;;;;;;;20.62;57.32;99830.53;5104945;28;20053;-76
2021/09/25 09:21:12;;;;;;;15.13;12.57;;;;;;;20.58;57.59;99831.88;5104229;28;20042;-71
2021/09/25 09:23:43;;;;;;;16.95;14.93;;;;;;;20.35;58.39;99832.00;5104852;28;20044;-73
2021/09/25 09:26:15;;;;;;;19.23;15.27;;;;;;;20.27;59.14;99835.59;5105161;28;20047;-71
2021/09/25 09:28:45;;;;;;;17.00;12.63;;;;;;;20.33;58.90;99839.38;5093609;28;20050;-73
2021/09/25 09:31:14;;;;;;;15.80;12.25;;;;;;;20.47;58.62;99832.34;5102416;28;20054;-72
2021/09/25 09:33:43;;;;;;;20.10;16.05;;;;;;;20.52;58.46;99829.94;5106598;28;20043;-71
2021/09/25 09:36:26;;;;;;;14.70;13.23;;;;;;;20.64;58.33;99833.88;5103586;28;20055;-79
2021/09/25 09:38:56;;;;;;;17.35;14.13;;;;;;;20.72;58.19;99839.09;5098930;28;20067;-74
2021/09/25 09:41:25;;;;;;;26.23;19.10;;;;;;;20.96;57.62;99839.81;5099653;28;20042;-74
2021/09/25 09:43:56;;;;;;;15.75;13.40;;;;;;;21.08;56.98;99840.97;5102166;28;20049;-71
2021/09/25 09:46:34;;;;;;;15.60;12.60;;;;;;;21.10;57.37;99838.91;5105467;28;20043;-75
2021/09/25 09:49:01;;;;;;;15.25;12.82;;;;;;;21.00;57.38;99844.63;5103923;28;20047;-71
2021/09/25 09:51:41;;;;;;;16.30;14.60;;;;;;;20.93;57.61;99843.69;5104826;28;20046;-76
2021/09/25 09:54:20;;;;;;;18.02;11.80;;;;;;;21.05;57.49;99845.88;5098917;28;20039;-70
2021/09/25 09:56:48;;;;;;;16.60;13.07;;;;;;;21.15;56.92;99846.44;5099466;28;20044;-71
2021/09/25 09:59:15;;;;;;;16.95;15.13;;;;;;;21.15;56.69;99846.44;5106726;28;20031;-71
2021/09/25 10:01:43;;;;;;;16.58;14.82;;;;;;;21.04;56.81;99845.06;5108768;28;20139;-73
2021/09/25 10:04:11;;;;;;;15.95;12.85;;;;;;;21.07;57.06;99849.22;5107980;28;20775;-70
2021/09/25 10:06:40;;;;;;;20.58;16.80;;;;;;;21.00;57.16;99849.16;5103845;28;20463;-72
2021/09/25 10:09:09;;;;;;;21.42;13.18;;;;;;;21.07;57.17;99844.69;5099935;28;20050;-76
2021/09/25 10:11:38;;;;;;;16.90;14.73;;;;;;;21.19;56.92;99843.19;5103401;28;20047;-73
2021/09/25 10:14:06;;;;;;;16.40;14.55;;;;;;;21.36;56.52;99835.69;5114551;28;20055;-72
2021/09/25 10:16:34;;;;;;;17.80;12.80;;;;;;;21.50;56.40;99844.75;5113681;28;20047;-74
2021/09/25 10:19:04;;;;;;;18.85;13.95;;;;;;;21.65;55.52;99843.84;5112424;28;20048;-69
2021/09/25 10:21:35;;;;;;;16.02;12.02;;;;;;;21.68;55.86;99848.81;5107030;28;20054;-70
2021/09/25 10:24:09;;;;;;;16.88;12.30;;;;;;;21.56;55.95;99838.59;5104222;28;20043;-80
2021/09/25 10:26:43;;;;;;;18.25;12.55;;;;;;;21.46;56.49;99843.44;5103870;28;20047;-81
2021/09/25 10:29:11;;;;;;;18.80;12.25;;;;;;;21.37;56.56;99848.13;5102654;28;20040;-77
2021/09/25 10:31:38;;;;;;;16.50;13.95;;;;;;;21.12;57.23;99853.03;5083834;28;20210;-71
2021/09/25 10:34:12;;;;;;;17.30;14.50;;;;;;;20.88;57.88;99853.34;5102093;28;20051;-69
2021/09/25 10:36:43;;;;;;;18.20;15.47;;;;;;;20.61;59.00;99863.75;5102468;28;20055;-69
2021/09/25 10:39:36;;;;;;;22.13;18.63;;;;;;;20.00;61.70;99862.00;5102940;28;20055;-70
2021/09/25 10:42:11;;;;;;;23.10;20.63;;;;;;;19.58;63.37;99862.53;5101007;28;20463;-69
2021/09/25 10:44:48;;;;;;;24.25;21.55;;;;;;;19.34;65.09;99868.88;5105476;28;20047;-70
2021/09/25 10:47:17;;;;;;;27.33;19.50;;;;;;;19.17;65.35;99871.66;5107285;28;20051;-71
2021/09/25 10:49:56;;;;;;;28.98;23.27;;;;;;;19.08;66.20;99870.03;5104418;28;20047;-71
2021/09/25 10:52:25;;;;;;;33.60;29.95;;;;;;;18.86;67.59;99879.69;5107536;28;20050;-71
2021/09/25 10:55:26;;;;;;;29.88;25.38;;;;;;;18.75;68.55;99883.56;5101793;28;20601;-73
2021/09/25 10:58:18;;;;;;;37.53;32.60;;;;;;;18.62;68.96;99888.59;5096628;28;20040;-74
2021/09/25 11:01:09;;;;;;;41.53;32.63;;;;;;;18.49;69.59;99898.03;5088077;28;20056;-72
2021/09/25 11:03:53;;;;;;;38.67;30.65;;;;;;;18.51;69.72;99892.47;5086544;28;20040;-70
2021/09/25 11:06:22;;;;;;;43.60;33.00;;;;;;;18.58;69.65;99892.63;5097657;28;20044;-72
2021/09/25 11:08:51;;;;;;;44.53;34.05;;;;;;;18.51;70.16;99896.00;5100401;28;20052;-71
2021/09/25 11:11:30;;;;;;;44.55;34.55;;;;;;;18.47;70.26;99899.19;5098679;28;20058;-70
2021/09/25 11:14:11;;;;;;;46.08;35.33;;;;;;;18.54;70.75;99906.34;5099256;28;20044;-71
2021/09/25 11:16:53;;;;;;;45.15;34.42;;;;;;;18.74;69.77;99905.97;5099901;28;20047;-74
2021/09/25 11:19:51;;;;;;;45.50;37.90;;;;;;;18.69;70.33;99902.97;5100946;28;20103;-69
2021/09/25 11:22:24;;;;;;;42.28;32.40;;;;;;;18.73;69.99;99906.97;4996417;28;20050;-78
2021/09/25 11:24:54;;;;;;;42.85;32.50;;;;;;;18.87;69.81;99908.09;4996680;28;20751;-73
2021/09/25 11:27:26;;;;;;;42.80;30.52;;;;;;;18.94;69.33;99897.56;4996925;28;20095;-70
2021/09/25 11:30:04;;;;;;;44.63;29.15;;;;;;;19.05;69.21;99900.69;5001989;28;20060;-73